createdAt,value
2022-09-03T00:01:59.297Z,20.54
2022-09-03T00:04:42.596Z,20.51
2022-09-03T00:07:20.274Z,20.46
2022-09-03T00:09:51.856Z,20.40
2022-09-03T00:12:24.756Z,20.38
2022-09-03T00:15:03.634Z,20.33
2022-09-03T00:17:40.967Z,20.29
2022-09-03T00:20:15.363Z,20.23
2022-09-03T00:22:46.851Z,20.20
2022-09-03T00:25:20.715Z,20.15
2022-09-03T00:27:55.631Z,20.21
2022-09-03T00:30:24.399Z,20.17
2022-09-03T00:32:59.363Z,20.13
2022-09-03T00:35:37.631Z,20.15
2022-09-03T00:38:06.130Z,20.11
2022-09-03T00:40:38.931Z,20.05
2022-09-03T00:43:18.800Z,19.98
2022-09-03T00:45:51.769Z,19.98
2022-09-03T00:48:37.212Z,20.00
2022-09-03T00:51:10.604Z,19.97
2022-09-03T00:53:55.210Z,19.98
2022-09-03T00:56:37.499Z,19.89
2022-09-03T00:59:36.416Z,19.84
2022-09-03T01:02:18.077Z,19.80
2022-09-03T01:05:18.330Z,19.76
2022-09-03T01:08:02.567Z,19.68
2022-09-03T01:11:10.408Z,19.67
2022-09-03T01:13:42.877Z,19.71
2022-09-03T01:16:21.672Z,19.64
2022-09-03T01:19:28.787Z,19.54
2022-09-03T01:22:07.154Z,19.59
2022-09-03T01:24:58.789Z,19.60
2022-09-03T01:28:01.986Z,19.53
2022-09-03T01:30:33.482Z,19.55
2022-09-03T01:33:09.105Z,19.52
2022-09-03T01:35:48.376Z,19.49
2022-09-03T01:38:28.852Z,19.42
2022-09-03T01:41:45.998Z,19.41
2022-09-03T01:44:12.929Z,19.42
2022-09-03T01:46:41.916Z,19.47
2022-09-03T01:49:33.889Z,19.38
2022-09-03T01:52:13.628Z,19.36
2022-09-03T01:54:50.392Z,19.27
2022-09-03T01:57:36.850Z,19.26
2022-09-03T02:00:13.133Z,19.25
2022-09-03T02:02:42.064Z,19.26
2022-09-03T02:05:20.465Z,19.26
2022-09-03T02:07:56.647Z,19.28
2022-09-03T02:10:32.183Z,19.19
2022-09-03T02:13:04.958Z,19.15
2022-09-03T02:15:34.509Z,19.11
2022-09-03T02:18:03.945Z,19.13
2022-09-03T02:20:31.079Z,19.04
2022-09-03T02:22:59.249Z,19.02
2022-09-03T02:25:34.766Z,19.03
2022-09-03T02:28:01.877Z,19.04
2022-09-03T02:30:28.506Z,19.03
2022-09-03T02:32:55.241Z,19.06
2022-09-03T02:35:22.014Z,19.02
2022-09-03T02:37:48.620Z,19.05
2022-09-03T02:40:15.209Z,19.05
2022-09-03T02:42:41.946Z,19.02
2022-09-03T02:45:26.890Z,18.93
2022-09-03T02:47:59.631Z,18.89
2022-09-03T02:50:27.137Z,18.87
2022-09-03T02:52:54.066Z,18.86
2022-09-03T02:55:21.144Z,18.86
2022-09-03T02:57:48.020Z,18.83
2022-09-03T03:00:15.490Z,18.77
2022-09-03T03:02:43.209Z,18.84
2022-09-03T03:05:15.003Z,18.86
2022-09-03T03:07:41.857Z,18.83
2022-09-03T03:10:09.308Z,18.79
2022-09-03T03:12:36.045Z,18.77
2022-09-03T03:15:02.738Z,18.82
2022-09-03T03:17:29.467Z,18.80
2022-09-03T03:19:56.116Z,18.76
2022-09-03T03:22:23.140Z,18.73
2022-09-03T03:24:50.490Z,18.69
2022-09-03T03:27:18.860Z,18.66
2022-09-03T03:29:45.578Z,18.65
2022-09-03T03:32:12.313Z,18.61
2022-09-03T03:34:39.845Z,18.60
2022-09-03T03:37:06.510Z,18.57
2022-09-03T03:39:33.334Z,18.53
2022-09-03T03:42:00.069Z,18.53
2022-09-03T03:44:26.826Z,18.52
2022-09-03T03:46:53.737Z,18.44
2022-09-03T03:49:20.346Z,18.45
2022-09-03T03:51:47.085Z,18.41
2022-09-03T03:54:17.473Z,18.34
2022-09-03T03:56:44.617Z,18.30
2022-09-03T03:59:18.130Z,18.30
2022-09-03T04:01:44.763Z,18.34
2022-09-03T04:04:11.623Z,18.34
2022-09-03T04:06:38.208Z,18.29
2022-09-03T04:09:05.041Z,18.24
2022-09-03T04:11:31.768Z,18.23
2022-09-03T04:13:58.416Z,18.17
2022-09-03T04:16:27.073Z,18.17
2022-09-03T04:18:55.232Z,18.15
2022-09-03T04:21:24.703Z,17.97
2022-09-03T04:23:54.030Z,18.00
2022-09-03T04:26:23.724Z,18.01
2022-09-03T04:28:50.394Z,17.94
2022-09-03T04:31:19.635Z,17.68
2022-09-03T04:33:46.751Z,17.58
2022-09-03T04:36:23.727Z,17.64
2022-09-03T04:38:53.431Z,17.76
2022-09-03T04:41:24.677Z,17.79
2022-09-03T04:43:52.912Z,17.76
2022-09-03T04:46:21.009Z,17.68
2022-09-03T04:48:51.361Z,17.45
2022-09-03T04:51:24.623Z,17.44
2022-09-03T04:53:59.668Z,17.43
2022-09-03T04:56:29.435Z,17.41
2022-09-03T04:58:58.259Z,17.40
2022-09-03T05:01:29.003Z,17.44
2022-09-03T05:03:56.975Z,17.42
2022-09-03T05:06:25.533Z,17.50
2022-09-03T05:08:54.281Z,17.53
2022-09-03T05:11:21.674Z,17.42
2022-09-03T05:13:50.210Z,17.45
2022-09-03T05:16:18.972Z,17.54
2022-09-03T05:18:46.935Z,17.63
2022-09-03T05:21:16.271Z,17.66
2022-09-03T05:23:48.796Z,17.61
2022-09-03T05:26:21.696Z,17.65
2022-09-03T05:28:48.650Z,17.65
2022-09-03T05:31:19.003Z,17.55
2022-09-03T05:33:52.128Z,17.58
2022-09-03T05:36:22.911Z,17.58
2022-09-03T05:38:50.667Z,17.45
2022-09-03T05:41:19.051Z,17.32
2022-09-03T05:43:51.783Z,17.49
2022-09-03T05:46:18.534Z,17.60
2022-09-03T05:48:45.639Z,17.62
2022-09-03T05:51:17.796Z,17.58
2022-09-03T05:53:46.880Z,17.70
2022-09-03T05:56:25.363Z,17.75
2022-09-03T05:58:57.759Z,17.85
2022-09-03T06:01:30.867Z,17.91
2022-09-03T06:04:02.758Z,17.94
2022-09-03T06:06:31.752Z,17.96
2022-09-03T06:09:02.642Z,17.99
2022-09-03T06:11:30.739Z,17.91
2022-09-03T06:14:01.670Z,17.96
2022-09-03T06:16:31.520Z,18.00
2022-09-03T06:19:00.491Z,18.02
2022-09-03T06:21:27.396Z,18.08
2022-09-03T06:24:00.244Z,18.06
2022-09-03T06:26:30.553Z,18.01
2022-09-03T06:28:57.957Z,18.04
2022-09-03T06:31:25.629Z,18.04
2022-09-03T06:33:54.496Z,18.11
2022-09-03T06:36:22.699Z,18.14
2022-09-03T06:38:52.956Z,18.25
2022-09-03T06:41:25.149Z,18.31
2022-09-03T06:44:04.481Z,18.36
2022-09-03T06:46:33.460Z,18.41
2022-09-03T06:49:00.583Z,18.47
2022-09-03T06:51:29.555Z,18.43
2022-09-03T06:54:07.762Z,18.40
2022-09-03T06:56:40.338Z,18.36
2022-09-03T06:59:10.994Z,18.46
2022-09-03T07:01:43.555Z,18.47
2022-09-03T07:04:12.787Z,18.44
2022-09-03T07:06:42.327Z,18.50
2022-09-03T07:09:11.631Z,18.63
2022-09-03T07:11:45.654Z,18.77
2022-09-03T07:14:13.764Z,18.90
2022-09-03T07:16:41.978Z,18.96
2022-09-03T07:19:09.175Z,19.19
2022-09-03T07:21:37.068Z,19.41
2022-09-03T07:24:05.954Z,19.52
2022-09-03T07:26:35.974Z,19.45
2022-09-03T07:29:03.023Z,19.46
2022-09-03T07:31:35.877Z,19.46
2022-09-03T07:34:06.056Z,19.54
2022-09-03T07:36:42.694Z,19.53
2022-09-03T07:39:11.502Z,19.61
2022-09-03T07:41:42.524Z,19.66
2022-09-03T07:44:09.744Z,19.69
2022-09-03T07:46:38.104Z,19.66
2022-09-03T07:49:06.398Z,19.74
2022-09-03T07:51:38.477Z,19.73
2022-09-03T07:54:09.120Z,19.85
2022-09-03T07:56:36.494Z,19.96
2022-09-03T07:59:04.292Z,20.02
2022-09-03T08:01:32.743Z,20.08
2022-09-03T08:04:01.168Z,20.12
2022-09-03T08:06:29.888Z,20.12
2022-09-03T08:09:04.463Z,20.24
2022-09-03T08:11:43.218Z,20.36
2022-09-03T08:14:12.231Z,20.43
2022-09-03T08:16:44.635Z,20.46
2022-09-03T08:19:13.378Z,20.46
2022-09-03T08:21:44.182Z,20.42
2022-09-03T08:24:12.093Z,20.51
2022-09-03T08:26:45.096Z,20.63
2022-09-03T08:29:14.570Z,20.63
2022-09-03T08:31:41.435Z,20.55
2022-09-03T08:34:08.368Z,20.60
2022-09-03T08:36:37.387Z,20.54
2022-09-03T08:39:09.973Z,20.57
2022-09-03T08:41:56.054Z,20.64
2022-09-03T08:44:30.203Z,20.77
2022-09-03T08:47:09.115Z,20.92
2022-09-03T08:49:57.442Z,21.04
2022-09-03T08:52:42.324Z,21.04
2022-09-03T08:55:44.779Z,21.12
2022-09-03T08:58:19.388Z,21.23
2022-09-03T09:01:04.400Z,21.24
2022-09-03T09:03:53.050Z,21.23
2022-09-03T09:06:50.354Z,21.26
2022-09-03T09:09:39.980Z,21.39
2022-09-03T09:12:46.913Z,21.39
2022-09-03T09:15:34.056Z,21.47
2022-09-03T09:18:18.447Z,21.56
2022-09-03T09:20:51.940Z,21.66
2022-09-03T09:23:24.554Z,21.72
2022-09-03T09:25:55.697Z,21.78
2022-09-03T09:28:25.268Z,21.83
2022-09-03T09:30:56.948Z,21.90
2022-09-03T09:33:25.113Z,22.09
2022-09-03T09:35:51.723Z,22.19
2022-09-03T09:38:30.024Z,22.35
2022-09-03T09:40:58.174Z,22.52
2022-09-03T09:43:24.940Z,22.71
2022-09-03T09:45:53.444Z,22.79
2022-09-03T09:48:31.306Z,22.91
2022-09-03T09:51:18.671Z,23.10
2022-09-03T09:53:45.423Z,23.47
2022-09-03T09:56:26.038Z,23.61
2022-09-03T09:59:07.558Z,23.88
2022-09-03T10:01:37.910Z,24.00
2022-09-03T10:04:33.222Z,24.01
2022-09-03T10:07:31.660Z,23.92
2022-09-03T10:10:05.884Z,23.80
2022-09-03T10:12:42.264Z,23.63
2022-09-03T10:15:26.013Z,23.58
2022-09-03T10:18:04.516Z,23.66
2022-09-03T10:20:44.800Z,23.69
2022-09-03T10:23:17.949Z,23.76
2022-09-03T10:25:57.932Z,23.75
2022-09-03T10:28:29.043Z,23.82
2022-09-03T10:31:26.727Z,23.96
2022-09-03T10:34:08.435Z,24.05
2022-09-03T10:36:42.683Z,24.14
2022-09-03T10:39:20.357Z,23.93
2022-09-03T10:42:22.163Z,24.05
2022-09-03T10:44:58.518Z,24.20
2022-09-03T10:47:40.233Z,24.31
2022-09-03T10:50:25.845Z,24.31
2022-09-03T10:53:10.753Z,24.41
2022-09-03T10:55:46.579Z,24.41
2022-09-03T10:58:28.452Z,24.34
2022-09-03T11:01:04.963Z,24.53
2022-09-03T11:04:01.323Z,24.62
2022-09-03T11:06:30.538Z,24.57
2022-09-03T11:09:11.719Z,24.58
2022-09-03T11:11:47.551Z,24.66
2022-09-03T11:14:22.561Z,24.47
2022-09-03T11:16:54.217Z,24.50
2022-09-03T11:19:33.020Z,24.48
2022-09-03T11:22:01.682Z,24.52
2022-09-03T11:24:33.036Z,24.46
2022-09-03T11:27:19.897Z,24.62
2022-09-03T11:29:51.955Z,24.57
2022-09-03T11:32:25.203Z,24.60
2022-09-03T11:34:54.818Z,24.65
2022-09-03T11:37:25.567Z,24.66
2022-09-03T11:39:59.798Z,24.60
2022-09-03T11:42:32.904Z,24.57
2022-09-03T11:45:41.679Z,24.65
2022-09-03T11:48:40.361Z,24.50
2022-09-03T11:51:30.333Z,24.61
2022-09-03T11:54:13.620Z,24.60
2022-09-03T11:56:42.231Z,24.69
2022-09-03T11:59:14.834Z,24.69
2022-09-03T12:01:53.195Z,24.55
2022-09-03T12:04:25.938Z,24.59
2022-09-03T12:07:09.461Z,24.67
2022-09-03T12:10:08.086Z,24.78
2022-09-03T12:12:54.847Z,24.95
2022-09-03T12:15:40.440Z,24.72
2022-09-03T12:18:19.992Z,24.66
2022-09-03T12:20:48.772Z,24.78
2022-09-03T12:23:30.755Z,24.77
2022-09-03T12:28:37.945Z,25.11
2022-09-03T12:31:29.574Z,25.11
2022-09-03T12:33:59.146Z,25.08
2022-09-03T12:36:36.728Z,25.12
2022-09-03T12:42:25.731Z,25.08
2022-09-03T12:44:53.404Z,25.21
2022-09-03T12:47:38.823Z,25.19
2022-09-03T12:50:16.991Z,25.38
2022-09-03T12:52:48.961Z,25.36
2022-09-03T12:55:34.924Z,25.26
2022-09-03T12:58:13.870Z,25.10
2022-09-03T13:00:59.413Z,25.13
2022-09-03T13:03:31.651Z,25.22
2022-09-03T13:06:06.509Z,25.35
2022-09-03T13:08:44.226Z,25.42
2022-09-03T13:11:15.570Z,25.48
2022-09-03T13:14:02.542Z,25.49
2022-09-03T13:16:38.868Z,25.43
2022-09-03T13:19:11.786Z,25.44
2022-09-03T13:22:07.732Z,25.49
2022-09-03T13:24:53.140Z,25.53
2022-09-03T13:27:38.229Z,25.40
2022-09-03T13:30:07.665Z,25.43
2022-09-03T13:33:11.834Z,25.41
2022-09-03T13:35:46.711Z,25.48
2022-09-03T13:38:43.679Z,25.58
2022-09-03T13:41:38.682Z,25.59
2022-09-03T13:44:18.148Z,25.60
2022-09-03T13:47:09.757Z,25.62
2022-09-03T13:50:09.135Z,25.60
2022-09-03T13:53:02.601Z,25.52
2022-09-03T13:55:37.856Z,25.49
2022-09-03T13:58:28.544Z,25.54
2022-09-03T14:00:58.285Z,25.48
2022-09-03T14:03:33.411Z,25.46
2022-09-03T14:06:02.704Z,25.52
2022-09-03T14:08:59.102Z,25.51
2022-09-03T14:11:41.221Z,25.64
2022-09-03T14:14:42.072Z,25.52
2022-09-03T14:17:25.820Z,25.60
2022-09-03T14:20:02.415Z,25.58
2022-09-03T14:22:53.273Z,25.54
2022-09-03T14:25:26.029Z,25.62
2022-09-03T14:27:54.604Z,25.67
2022-09-03T14:30:46.408Z,25.67
2022-09-03T14:33:24.853Z,25.68
2022-09-03T14:36:08.206Z,25.60
2022-09-03T14:39:09.301Z,25.67
2022-09-03T14:41:52.394Z,25.64
2022-09-03T14:44:40.508Z,25.56
2022-09-03T14:47:34.584Z,25.54
2022-09-03T14:50:26.527Z,25.43
2022-09-03T14:53:17.710Z,25.37
2022-09-03T14:56:18.684Z,25.32
2022-09-03T14:59:19.146Z,25.31
2022-09-03T15:02:12.633Z,25.35
2022-09-03T15:05:11.727Z,25.23
2022-09-03T15:07:59.240Z,25.31
2022-09-03T15:10:25.905Z,25.33
2022-09-03T15:12:58.928Z,25.25
2022-09-03T15:15:54.600Z,25.24
2022-09-03T15:18:51.069Z,25.30
2022-09-03T15:21:41.398Z,25.43
2022-09-03T15:24:34.501Z,25.47
2022-09-03T15:27:20.648Z,25.59
2022-09-03T15:30:11.157Z,25.63
2022-09-03T15:32:37.775Z,25.75
2022-09-03T15:35:10.852Z,25.80
2022-09-03T15:38:04.365Z,25.70
2022-09-03T15:40:36.244Z,25.77
2022-09-03T15:43:17.599Z,25.75
2022-09-03T15:45:47.086Z,25.68
2022-09-03T15:48:19.850Z,25.67
2022-09-03T15:51:09.966Z,25.75
2022-09-03T15:53:45.948Z,25.68
2022-09-03T15:56:16.235Z,25.60
2022-09-03T15:58:52.795Z,25.62
2022-09-03T16:01:26.977Z,25.70
2022-09-03T16:03:59.486Z,25.71
2022-09-03T16:06:38.493Z,25.66
2022-09-03T16:09:29.844Z,25.73
2022-09-03T16:12:24.940Z,25.74
2022-09-03T16:15:07.609Z,25.68
2022-09-03T16:17:49.959Z,25.68
2022-09-03T16:20:26.229Z,25.67
2022-09-03T16:23:14.877Z,25.66
2022-09-03T16:25:50.642Z,25.69
2022-09-03T16:28:26.545Z,25.65
2022-09-03T16:31:42.993Z,25.63
2022-09-03T16:34:31.222Z,25.57
2022-09-03T16:37:35.005Z,25.53
2022-09-03T16:40:27.761Z,25.59
2022-09-03T16:43:36.888Z,25.62
2022-09-03T16:46:18.988Z,25.68
2022-09-03T16:48:51.828Z,25.64
2022-09-03T16:51:53.988Z,25.70
2022-09-03T16:54:55.749Z,25.71
2022-09-03T16:57:35.907Z,25.72
2022-09-03T17:00:11.847Z,25.80
2022-09-03T17:03:09.451Z,25.81
2022-09-03T17:06:01.180Z,25.88
2022-09-03T17:08:53.041Z,25.91
2022-09-03T17:11:37.707Z,25.87
2022-09-03T17:14:07.639Z,25.92
2022-09-03T17:16:39.001Z,25.98
2022-09-03T17:19:31.794Z,25.79
2022-09-03T17:22:23.457Z,25.72
2022-09-03T17:25:03.791Z,25.78
2022-09-03T17:28:09.696Z,25.74
2022-09-03T17:30:56.077Z,25.81
2022-09-03T17:33:51.238Z,25.85
2022-09-03T17:36:22.309Z,25.84
2022-09-03T17:39:09.497Z,25.86
2022-09-03T17:41:42.425Z,25.80
2022-09-03T17:44:27.557Z,25.68
2022-09-03T17:47:28.122Z,25.56
2022-09-03T17:50:02.261Z,25.51
2022-09-03T17:52:39.353Z,25.48
2022-09-03T17:55:21.859Z,25.46
2022-09-03T17:58:03.893Z,25.38
2022-09-03T18:00:41.981Z,25.37
2022-09-03T18:03:21.570Z,25.37
2022-09-03T18:06:01.454Z,25.35
2022-09-03T18:08:43.651Z,25.26
2022-09-03T18:11:14.075Z,25.23
2022-09-03T18:13:59.696Z,25.19
2022-09-03T18:16:26.725Z,25.21
2022-09-03T18:19:02.849Z,25.16
2022-09-03T18:21:52.813Z,25.14
2022-09-03T18:24:50.786Z,25.12
2022-09-03T18:27:45.765Z,25.09
2022-09-03T18:30:33.563Z,25.02
2022-09-03T18:33:18.717Z,24.97
2022-09-03T18:36:05.131Z,24.84
2022-09-03T18:38:53.032Z,24.72
2022-09-03T18:41:48.541Z,24.52
2022-09-03T18:44:42.824Z,24.49
2022-09-03T18:48:05.669Z,24.47
2022-09-03T18:51:25.169Z,24.47
2022-09-03T18:54:23.550Z,24.42
2022-09-03T18:57:12.057Z,24.33
2022-09-03T19:00:09.427Z,24.28
2022-09-03T19:03:07.139Z,24.27
2022-09-03T19:06:21.860Z,24.27
2022-09-03T19:09:26.983Z,24.28
2022-09-03T19:12:35.511Z,24.23
2022-09-03T19:15:31.854Z,24.17
2022-09-03T19:18:56.234Z,24.03
2022-09-03T19:21:51.594Z,23.95
2022-09-03T19:24:41.376Z,23.87
2022-09-03T19:27:58.547Z,23.86
2022-09-03T19:31:09.427Z,23.68
2022-09-03T19:34:33.501Z,23.62
2022-09-03T19:37:30.007Z,23.65
2022-09-03T19:40:21.530Z,23.63
2022-09-03T19:43:49.601Z,23.52
2022-09-03T19:47:04.982Z,23.39
2022-09-03T19:50:08.536Z,23.39
2022-09-03T19:52:57.142Z,23.39
2022-09-03T19:55:50.644Z,23.47
2022-09-03T19:58:43.659Z,23.54
2022-09-03T20:01:30.051Z,23.33
2022-09-03T20:04:18.959Z,23.23
2022-09-03T20:07:05.069Z,23.37
2022-09-03T20:09:58.387Z,23.45
2022-09-03T20:12:29.862Z,23.50
2022-09-03T20:14:56.873Z,23.48
2022-09-03T20:17:42.770Z,23.40
2022-09-03T20:20:15.677Z,23.32
2022-09-03T20:22:57.925Z,23.37
2022-09-03T20:25:56.209Z,23.37
2022-09-03T20:29:00.727Z,23.38
2022-09-03T20:31:51.681Z,23.33
2022-09-03T20:34:18.521Z,23.42
2022-09-03T20:37:05.311Z,23.40
2022-09-03T20:39:35.009Z,23.38
2022-09-03T20:42:13.943Z,23.38
2022-09-03T20:44:47.293Z,23.35
2022-09-03T20:47:30.342Z,23.19
2022-09-03T20:50:03.924Z,23.13
2022-09-03T20:52:38.680Z,23.15
2022-09-03T20:55:20.001Z,23.27
2022-09-03T20:58:22.129Z,23.30
2022-09-03T21:01:23.111Z,23.22
2022-09-03T21:04:14.812Z,23.15
2022-09-03T21:06:53.258Z,23.03
2022-09-03T21:09:44.824Z,23.05
2022-09-03T21:12:29.538Z,23.11
2022-09-03T21:15:08.206Z,23.16
2022-09-03T21:17:55.802Z,23.16
2022-09-03T21:20:28.045Z,23.17
2022-09-03T21:23:05.747Z,23.11
2022-09-03T21:25:40.004Z,23.03
2022-09-03T21:28:15.001Z,22.92
2022-09-03T21:30:47.401Z,22.88
2022-09-03T21:33:19.866Z,22.86
2022-09-03T21:35:54.265Z,23.00
2022-09-03T21:38:24.906Z,23.00
2022-09-03T21:41:05.024Z,22.99
2022-09-03T21:43:58.833Z,22.89
2022-09-03T21:46:31.040Z,22.83
2022-09-03T21:49:06.411Z,22.75
2022-09-03T21:51:47.401Z,22.67
2022-09-03T21:54:21.620Z,22.58
2022-09-03T21:56:57.550Z,22.51
2022-09-03T21:59:55.373Z,22.39
2022-09-03T22:02:29.945Z,22.29
2022-09-03T22:04:57.802Z,22.07
2022-09-03T22:07:50.743Z,21.87
2022-09-03T22:10:39.263Z,21.87
2022-09-03T22:13:29.909Z,21.78
2022-09-03T22:16:13.126Z,21.64
2022-09-03T22:18:40.476Z,21.77
2022-09-03T22:21:20.415Z,21.80
2022-09-03T22:24:31.925Z,21.75
2022-09-03T22:27:20.239Z,21.82
2022-09-03T22:29:59.128Z,21.78
2022-09-03T22:32:53.836Z,21.76
2022-09-03T22:35:59.010Z,21.69
2022-09-03T22:38:46.487Z,21.63
2022-09-03T22:41:50.117Z,21.53
2022-09-03T22:44:45.844Z,21.47
2022-09-03T22:47:27.558Z,21.44
2022-09-03T22:49:54.120Z,21.46
2022-09-03T22:52:40.513Z,21.43
2022-09-03T22:55:15.867Z,21.36
2022-09-03T22:57:53.337Z,21.32
2022-09-03T23:00:21.126Z,21.22
2022-09-03T23:02:56.195Z,21.15
2022-09-03T23:05:44.224Z,21.14
2022-09-03T23:08:17.882Z,21.05
2022-09-03T23:10:59.495Z,20.91
2022-09-03T23:13:51.522Z,20.64
2022-09-03T23:16:30.479Z,20.84
2022-09-03T23:19:01.943Z,20.70
2022-09-03T23:21:40.750Z,20.76
2022-09-03T23:24:25.996Z,20.91
2022-09-03T23:26:53.504Z,20.97
2022-09-03T23:29:40.315Z,20.55
2022-09-03T23:32:09.096Z,20.56
2022-09-03T23:34:36.342Z,20.44
2022-09-03T23:37:34.091Z,20.56
2022-09-03T23:40:08.922Z,20.65
2022-09-03T23:42:50.526Z,20.44
2022-09-03T23:45:39.112Z,20.50
2022-09-03T23:48:36.675Z,20.55
2022-09-03T23:51:12.680Z,20.58
2022-09-03T23:53:54.455Z,20.68
2022-09-03T23:56:30.496Z,20.71
2022-09-03T23:59:28.557Z,20.65
